D/T METAR WX W/DIR W/SPE G/SPE TEMP DEWP
20/06/19 16:20 EGMC 201520Z 24012KT 9999 FEW047 18/08 Q1013 WSW (240°) 13.8mph 18°C 8°C
20/06/19 15:50 EGMC 201450Z 26011KT 9999 FEW047 19/08 Q1013 W (260°) 12.7mph 19°C 8°C
20/06/19 15:20 EGMC 201420Z 26011KT 9999 FEW047 18/08 Q1013 W (260°) 12.7mph 18°C 8°C
20/06/19 14:50 EGMC 201350Z 24010KT 9999 SCT046 19/09 Q1012 WSW (240°) 11.5mph 19°C 9°C
20/06/19 14:20 EGMC 201320Z 23013KT 9999 FEW040 20/09 Q1012 SW (230°) 15.0mph 20°C 9°C
20/06/19 13:20 EGMC 201220Z 26011KT 9999 SCT042 18/08 Q1012 W (260°) 12.7mph 18°C 8°C
20/06/19 12:50 EGMC 201150Z 24014KT 9999 SCT045 19/08 Q1012 WSW (240°) 16.1mph 19°C 8°C
20/06/19 11:50 EGMC 201050Z 25012KT 9999 SCT045 18/07 Q1012 WSW (250°) 13.8mph 18°C 7°C
20/06/19 11:20 EGMC 201020Z 25013KT 9999 FEW042 18/07 Q1012 WSW (250°) 15.0mph 18°C 7°C
20/06/19 10:50 EGMC 200950Z 25011KT 9999 FEW040 18/07 Q1012 WSW (250°) 12.7mph 18°C 7°C
20/06/19 10:20 EGMC 200920Z 25010KT 9999 FEW035 19/10 Q1011 WSW (250°) 11.5mph 19°C 10°C
20/06/19 09:50 EGMC 200850Z 28009KT 9999 FEW027 15/08 Q1011 W (280°) 10.4mph 15°C 8°C
20/06/19 09:20 EGMC 200820Z 28011KT 9999 FEW028 17/10 Q1011 W (280°) 12.7mph 17°C 10°C
20/06/19 08:50 EGMC 200750Z 28009KT 9999 FEW020 16/10 Q1011 W (280°) 10.4mph 16°C 10°C
20/06/19 07:50 EGMC 200650Z 27007KT 9999 FEW012 SCT035 15/12 Q1010 W (270°) 8.1mph 15°C 12°C
20/06/19 07:20 EGMC 200620Z 27010KT 9999 FEW008 SCT036 15/13 Q1010 W (270°) 11.5mph 15°C 13°C
20/06/19 06:50 EGMC 200550Z 26009KT 9999 FEW008 SCT036 15/13 Q1010 W (260°) 10.4mph 15°C 13°C
20/06/19 06:20 EGMC 200520Z 27006KT 9999 FEW008 15/13 Q1010 W (270°) 6.9mph 15°C 13°C
20/06/19 05:50 EGMC 200450Z 25006KT 9999 FEW016 13/12 Q1010 WSW (250°) 6.9mph 13°C 12°C
20/06/19 05:20 EGMC 200420Z 25004KT 9999 FEW034 15/13 Q1009 WSW (250°) 4.6mph 15°C 13°C
20/06/19 04:50 EGMC 200350Z 26005KT 9999 FEW009 SCT033 15/13 Q1009 W (260°) 5.8mph 15°C 13°C
20/06/19 04:20 EGMC 200320Z 22003KT 9999 FEW009 SCT040 15/13 Q1009 SW (220°) 3.5mph 15°C 13°C
20/06/19 03:50 EGMC 200250Z 00000KT 9999 FEW018 SCT041 15/13 Q1009 N (0°) 15°C 13°C
20/06/19 03:20 EGMC 200220Z 30004KT 270V350 9000 FEW021 BKN034 14/13 Q1009 WNW (300°) 4.6mph 14°C 13°C
20/06/19 02:50 EGMC 200150Z 29005KT 260V330 9000 FEW014 SCT030 15/13 Q1009 WNW (290°) 5.8mph 15°C 13°C
20/06/19 01:50 EGMC 200050Z 26006KT 7000 -RA FEW012 SCT015 BKN021 15/13 Q1009 -RA W (260°) 6.9mph 15°C 13°C
20/06/19 01:20 EGMC 200020Z 24006KT 6000 -RA FEW008 SCT019 15/13 Q1009 RERA -RA WSW (240°) 6.9mph 15°C 13°C
20/06/19 00:50 EGMC 192350Z 22004KT 6000 RA FEW006 SCT009 BKN016 15/13 Q1009 RA SW (220°) 4.6mph 15°C 13°C
20/06/19 00:20 EGMC 192320Z 23006KT 6000 -RA FEW006 BKN016 15/13 Q1009 -RA SW (230°) 6.9mph 15°C 13°C
19/06/19 23:50 EGMC 192250Z 24005KT 8000 -RA SCT024 BKN031 15/13 Q1009 RERA -RA WSW (240°) 5.8mph 15°C 13°C
19/06/19 22:50 EGMC 192150Z 24003KT 8000 RA FEW014 BKN042 16/14 Q1009 RA WSW (240°) 3.5mph 16°C 14°C
19/06/19 22:20 EGMC 192120Z 26009KT 7000 RA FEW030 BKN038 16/14 Q1009 RA W (260°) 10.4mph 16°C 14°C
19/06/19 21:20 EGMC 192020Z 00000KT CAVOK 16/14 Q1008 N (0°) 16°C 14°C
19/06/19 20:50 EGMC 191950Z 29002KT 9999 FEW012 SCT040 16/14 Q1008 WNW (290°) 2.3mph 16°C 14°C
19/06/19 20:20 EGMC 191920Z 32003KT 9999 FEW012 SCT037 17/15 Q1008 NW (320°) 3.5mph 17°C 15°C
19/06/19 19:20 EGMC 191820Z 32005KT 9999 VCSH FEW020 SCT037 18/15 Q1007 VCSH NW (320°) 5.8mph 18°C 15°C
19/06/19 18:50 EGMC 191750Z 32003KT 9999 FEW020 SCT037 18/15 Q1007 NW (320°) 3.5mph 18°C 15°C
19/06/19 18:20 EGMC 191720Z 33005KT 9999 VCSH FEW020 SCT028 19/17 Q1007 VCSH NNW (330°) 5.8mph 19°C 17°C
19/06/19 17:50 EGMC 191650Z 28006KT 240V330 9000 -SHRA SCT009 BKN025 18/14 Q1007 -SHRA W (280°) 6.9mph 18°C 14°C
19/06/19 17:20 EGMC 191620Z 28006KT 240V330 9999 VCSH SCT023 20/14 Q1007 VCSH W (280°) 6.9mph 20°C 14°C
19/06/19 16:50 EGMC 191550Z 29005KT 250V330 9999 FEW020 19/14 Q1007 WNW (290°) 5.8mph 19°C 14°C
19/06/19 16:20 EGMC 191520Z 27004KT 240V310 9999 FEW018 19/13 Q1007 W (270°) 4.6mph 19°C 13°C
19/06/19 15:50 EGMC 191450Z 30004KT 250V330 9999 FEW016 SCT020 18/13 Q1007 WNW (300°) 4.6mph 18°C 13°C
19/06/19 15:20 EGMC 191420Z 29006KT 260V330 9999 FEW016 BKN020 18/14 Q1007 WNW (290°) 6.9mph 18°C 14°C
19/06/19 14:50 EGMC 191350Z 28005KT 250V320 9999 FEW015 BKN020 18/14 Q1007 W (280°) 5.8mph 18°C 14°C
19/06/19 14:20 EGMC 191320Z 32006KT 280V340 9999 FEW015 BKN020 18/14 Q1007 NW (320°) 6.9mph 18°C 14°C
19/06/19 13:50 EGMC 191250Z 00000KT 9999 FEW015 BKN018 17/13 Q1007 N (0°) 17°C 13°C
19/06/19 13:20 EGMC 191220Z VRB03KT 9999 BKN013 17/14 Q1007 N (0°) 3.5mph 17°C 14°C